TAF SBEG
SBEG 270906Z 2712/2812 05005KT 9999 FEW010 TX32/2718Z TN23/2810Z TEMPO 2714/2718 4000 TSRA BKN017 FEW025CB BECMG 2800/2802 00000KT PROB40 TEMPO 2803/2806 TS BKN015 FEW025CB BECMG 2810/2812 01002KT RMK PHQ=
METAR SBEG
SBEG 270900Z 00000KT CAVOK 23/23 Q1010=
SBEG 270800Z 05001KT CAVOK 23/23 Q1009=
SBEG 270700Z 00000KT CAVOK 23/23 Q1009=
SBEG 270600Z 32002KT 9999 SCT002 23/23 Q1009=
SBEG 270500Z 30002KT 9999 SCT002 23/23 Q1010=
WC SBEG
WS SBEG
WV SBEG